createdAt,value
2022-08-22T00:00:19.194Z,96777.31
2022-08-22T00:03:09.413Z,96771.25
2022-08-22T00:06:00.494Z,96786.47
2022-08-22T00:09:00.090Z,96786.03
2022-08-22T00:11:58.109Z,96783.91
2022-08-22T00:14:43.503Z,96772.81
2022-08-22T00:17:31.062Z,96778.16
2022-08-22T00:20:26.402Z,96785.19
2022-08-22T00:23:13.439Z,96783.22
2022-08-22T00:25:43.224Z,96783.66
2022-08-22T00:28:21.928Z,96790.72
2022-08-22T00:31:02.980Z,96796.47
2022-08-22T00:33:33.992Z,96798.03
2022-08-22T00:36:10.844Z,96795.34
2022-08-22T00:39:07.084Z,96797.47
2022-08-22T00:42:08.294Z,96788.59
2022-08-22T00:44:56.708Z,96788.59
2022-08-22T00:47:38.620Z,96788.56
2022-08-22T00:50:29.777Z,96789.84
2022-08-22T00:53:14.410Z,96787.84
2022-08-22T00:56:01.550Z,96780.13
2022-08-22T00:58:36.165Z,96785.75
2022-08-22T01:01:10.138Z,96796.47
2022-08-22T01:03:48.590Z,96791.94
2022-08-22T01:06:39.887Z,96795.63
2022-08-22T01:09:27.691Z,96803.47
2022-08-22T01:12:22.214Z,96794.75
2022-08-22T01:14:58.010Z,96794.16
2022-08-22T01:17:45.514Z,96806.94
2022-08-22T01:20:33.490Z,96799.94
2022-08-22T01:23:34.175Z,96819.09
2022-08-22T01:26:37.992Z,96803.44
2022-08-22T01:29:28.852Z,96801.06
2022-08-22T01:32:26.523Z,96812.31
2022-08-22T01:35:25.657Z,96803.34
2022-08-22T01:38:14.089Z,96799.94
2022-08-22T01:40:53.348Z,96802.06
2022-08-22T01:43:59.655Z,96802.91
2022-08-22T01:46:41.141Z,96804.72
2022-08-22T01:49:08.179Z,96804.47
2022-08-22T01:52:02.172Z,96800.66
2022-08-22T01:54:53.669Z,96802.19
2022-08-22T01:57:23.752Z,96809.09
2022-08-22T01:59:55.766Z,96806.97
2022-08-22T02:02:28.276Z,96808.25
2022-08-22T02:05:10.380Z,96811.38
2022-08-22T02:07:57.611Z,96799.09
2022-08-22T02:10:43.015Z,96804.47
2022-08-22T02:13:13.025Z,96794.88
2022-08-22T02:15:40.006Z,96800.38
2022-08-22T02:18:06.691Z,96792.91
2022-08-22T02:20:48.553Z,96791.34
2022-08-22T02:23:29.603Z,96789.78
2022-08-22T02:26:02.323Z,96794.03
2022-08-22T02:28:57.127Z,96782.78
2022-08-22T02:31:33.643Z,96788.25
2022-08-22T02:34:15.436Z,96788.69
2022-08-22T02:37:14.421Z,96795.56
2022-08-22T02:39:53.056Z,96797.53
2022-08-22T02:42:46.696Z,96800.72
2022-08-22T02:45:16.327Z,96799.75
2022-08-22T02:48:06.920Z,96802.00
2022-08-22T02:50:38.870Z,96797.38
2022-08-22T02:53:13.785Z,96794.53
2022-08-22T02:55:43.713Z,96801.59
2022-08-22T02:58:21.151Z,96799.47
2022-08-22T03:01:19.837Z,96796.81
2022-08-22T03:03:48.320Z,96803.25
2022-08-22T03:06:33.826Z,96795.59
2022-08-22T03:09:15.460Z,96797.41
2022-08-22T03:12:20.279Z,96801.63
2022-08-22T03:15:10.183Z,96797.53
2022-08-22T03:17:53.831Z,96790.25
2022-08-22T03:20:48.362Z,96800.34
2022-08-22T03:23:35.219Z,96805.84
2022-08-22T03:26:36.897Z,96807.84
2022-08-22T03:29:12.065Z,96806.69
2022-08-22T03:32:15.568Z,96804.03
2022-08-22T03:35:00.299Z,96812.19
2022-08-22T03:37:40.829Z,96816.63
2022-08-22T03:40:31.831Z,96810.84
2022-08-22T03:43:27.186Z,96818.75
2022-08-22T03:46:23.580Z,96824.06
2022-08-22T03:49:05.256Z,96824.78
2022-08-22T03:52:10.333Z,96806.19
2022-08-22T03:54:37.329Z,96810.63
2022-08-22T03:57:58.586Z,96808.25
2022-08-22T04:00:53.105Z,96811.66
2022-08-22T04:04:13.091Z,96798.28
2022-08-22T04:06:58.518Z,96801.56
2022-08-22T04:09:41.362Z,96803.13
2022-08-22T04:12:23.597Z,96809.09
2022-08-22T04:15:05.117Z,96802.88
2022-08-22T04:17:47.056Z,96808.94
2022-08-22T04:20:31.860Z,96811.22
2022-08-22T04:23:20.382Z,96809.06
2022-08-22T04:25:53.590Z,96810.22
2022-08-22T04:28:32.578Z,96809.91
2022-08-22T04:31:02.355Z,96823.31
2022-08-22T04:34:01.435Z,96821.53
2022-08-22T04:36:46.177Z,96828.34
2022-08-22T04:39:45.774Z,96826.81
2022-08-22T04:42:34.083Z,96827.13
2022-08-22T04:45:18.397Z,96828.81
2022-08-22T04:47:54.286Z,96826.84
2022-08-22T04:50:49.233Z,96825.41
2022-08-22T04:53:43.923Z,96837.59
2022-08-22T04:57:01.750Z,96830.56
2022-08-22T04:59:31.745Z,96836.66
2022-08-22T05:02:06.554Z,96833.75
2022-08-22T05:04:47.975Z,96838.84
2022-08-22T05:07:22.171Z,96839.59
2022-08-22T05:09:54.048Z,96844.38
2022-08-22T05:12:29.231Z,96849.03
2022-08-22T05:15:07.373Z,96848.81
2022-08-22T05:17:38.755Z,96839.09
2022-08-22T05:20:12.399Z,96832.22
2022-08-22T05:22:47.374Z,96848.78
2022-08-22T05:25:21.089Z,96851.06
2022-08-22T05:27:56.814Z,96839.53
2022-08-22T05:30:28.596Z,96839.44
2022-08-22T05:33:04.589Z,96843.66
2022-08-22T05:35:47.206Z,96841.84
2022-08-22T05:38:19.716Z,96841.13
2022-08-22T05:40:54.375Z,96846.75
2022-08-22T05:43:23.928Z,96852.09
2022-08-22T05:45:50.878Z,96858.44
2022-08-22T05:48:27.079Z,96856.59
2022-08-22T05:51:01.202Z,96855.78
2022-08-22T05:53:41.699Z,96861.97
2022-08-22T05:56:15.875Z,96862.16
2022-08-22T05:58:56.811Z,96862.00
2022-08-22T06:01:35.554Z,96867.06
2022-08-22T06:04:12.115Z,96859.72
2022-08-22T06:07:02.155Z,96870.88
2022-08-22T06:09:46.928Z,96876.44
2022-08-22T06:12:22.229Z,96877.69
2022-08-22T06:15:11.600Z,96882.91
2022-08-22T06:17:49.779Z,96885.44
2022-08-22T06:20:26.280Z,96884.22
2022-08-22T06:22:59.607Z,96883.25
2022-08-22T06:25:33.911Z,96884.56
2022-08-22T06:28:10.937Z,96872.84
2022-08-22T06:30:39.701Z,96880.72
2022-08-22T06:33:16.459Z,96880.97
2022-08-22T06:36:11.389Z,96882.97
2022-08-22T06:39:04.150Z,96886.03
2022-08-22T06:41:36.295Z,96883.56
2022-08-22T06:44:06.177Z,96868.91
2022-08-22T06:46:40.807Z,96885.34
2022-08-22T06:49:11.605Z,96878.28
2022-08-22T06:51:39.346Z,96887.78
2022-08-22T06:54:13.482Z,96864.84
2022-08-22T06:56:43.925Z,96874.28
2022-08-22T06:59:16.999Z,96869.97
2022-08-22T07:01:51.950Z,96871.09
2022-08-22T07:04:26.557Z,96874.22
2022-08-22T07:06:56.062Z,96878.28
2022-08-22T07:09:28.957Z,96877.09
2022-08-22T07:12:02.902Z,96872.09
2022-08-22T07:14:49.689Z,96877.53
2022-08-22T07:17:24.470Z,96874.94
2022-08-22T07:20:07.799Z,96872.16
2022-08-22T07:22:37.532Z,96874.53
2022-08-22T07:25:14.994Z,96874.06
2022-08-22T07:27:48.914Z,96881.16
2022-08-22T07:30:28.084Z,96871.53
2022-08-22T07:33:26.693Z,96892.63
2022-08-22T07:36:22.638Z,96885.06
2022-08-22T07:39:21.570Z,96886.53
2022-08-22T07:42:01.338Z,96886.22
2022-08-22T07:45:27.700Z,96889.97
2022-08-22T07:48:25.466Z,96887.78
2022-08-22T07:50:58.541Z,96893.00
2022-08-22T07:57:24.653Z,96890.16
2022-08-22T08:00:01.355Z,96886.31
2022-08-22T08:02:31.802Z,96886.19
2022-08-22T08:05:05.079Z,96882.13
2022-08-22T08:07:43.567Z,96881.44
2022-08-22T08:10:16.454Z,96872.31
2022-08-22T08:13:01.905Z,96880.28
2022-08-22T08:18:51.042Z,96884.31
2022-08-22T08:21:35.640Z,96885.84
2022-08-22T08:24:05.977Z,96880.09
2022-08-22T08:27:07.181Z,96869.47
2022-08-22T08:29:46.409Z,96870.28
2022-08-22T08:32:17.966Z,96864.88
2022-08-22T08:34:45.063Z,96868.66
2022-08-22T08:37:56.890Z,96873.94
2022-08-22T08:40:31.837Z,96869.44
2022-08-22T08:43:17.136Z,96867.59
2022-08-22T08:46:14.571Z,96866.09
2022-08-22T08:48:53.762Z,96878.34
2022-08-22T08:51:45.422Z,96866.09
2022-08-22T08:54:46.158Z,96863.03
2022-08-22T08:57:42.067Z,96866.06
2022-08-22T09:00:31.532Z,96861.84
2022-08-22T09:04:02.468Z,96869.53
2022-08-22T09:06:59.336Z,96868.84
2022-08-22T09:09:54.263Z,96863.84
2022-08-22T09:13:11.434Z,96864.94
2022-08-22T09:16:08.291Z,96861.41
2022-08-22T09:18:48.849Z,96858.91
2022-08-22T09:21:15.949Z,96852.94
2022-08-22T09:27:11.998Z,96833.09
2022-08-22T09:29:54.851Z,96833.41
2022-08-22T09:32:41.829Z,96827.78
2022-08-22T09:35:31.482Z,96826.84
2022-08-22T09:37:58.995Z,96825.19
2022-08-22T09:40:39.315Z,96814.06
2022-08-22T09:43:21.218Z,96822.47
2022-08-22T09:46:08.069Z,96822.06
2022-08-22T09:48:55.619Z,96821.50
2022-08-22T09:51:38.980Z,96818.25
2022-08-22T09:54:18.761Z,96811.81
2022-08-22T09:57:01.326Z,96810.09
2022-08-22T09:59:58.967Z,96812.41
2022-08-22T10:02:32.666Z,96811.50
2022-08-22T10:05:40.872Z,96806.78
2022-08-22T10:08:49.615Z,96807.19
2022-08-22T10:11:38.752Z,96810.34
2022-08-22T10:14:16.195Z,96807.25
2022-08-22T10:17:14.708Z,96805.84
2022-08-22T10:20:06.233Z,96802.16
2022-08-22T10:22:47.198Z,96804.19
2022-08-22T10:25:47.692Z,96801.66
2022-08-22T10:28:39.968Z,96803.03
2022-08-22T10:31:59.420Z,96796.59
2022-08-22T10:34:39.307Z,96795.00
2022-08-22T10:37:11.615Z,96798.66
2022-08-22T10:40:05.533Z,96798.94
2022-08-22T10:43:03.121Z,96801.09
2022-08-22T10:45:41.987Z,96804.84
2022-08-22T10:48:12.078Z,96802.75
2022-08-22T10:50:47.764Z,96807.13
2022-08-22T10:53:43.652Z,96799.56
2022-08-22T10:56:17.091Z,96800.97
2022-08-22T10:58:55.062Z,96800.28
2022-08-22T11:01:38.331Z,96795.66
2022-08-22T11:04:28.968Z,96789.97
2022-08-22T11:07:05.251Z,96784.13
2022-08-22T11:10:00.890Z,96781.34
2022-08-22T11:12:34.908Z,96784.09
2022-08-22T11:15:46.501Z,96793.22
2022-08-22T11:18:17.608Z,96793.47
2022-08-22T11:21:08.461Z,96798.56
2022-08-22T11:24:05.242Z,96794.88
2022-08-22T11:26:46.525Z,96793.94
2022-08-22T11:29:44.260Z,96787.84
2022-08-22T11:32:46.059Z,96781.53
2022-08-22T11:35:16.007Z,96780.97
2022-08-22T11:37:56.314Z,96785.38
2022-08-22T11:40:36.722Z,96779.00
2022-08-22T11:43:33.305Z,96773.97
2022-08-22T11:46:15.002Z,96781.09
2022-08-22T11:48:47.062Z,96771.50
2022-08-22T11:51:25.417Z,96781.31
2022-08-22T11:54:22.188Z,96769.00
2022-08-22T11:57:06.964Z,96784.72
2022-08-22T11:59:59.025Z,96785.13
2022-08-22T12:03:03.148Z,96781.56
2022-08-22T12:05:35.714Z,96778.16
2022-08-22T12:08:29.191Z,96773.81
2022-08-22T12:11:14.250Z,96771.91
2022-08-22T12:14:02.458Z,96775.09
2022-08-22T12:17:01.041Z,96778.69
2022-08-22T12:20:18.610Z,96776.75
2022-08-22T12:22:54.477Z,96771.84
2022-08-22T12:25:24.212Z,96765.06
2022-08-22T12:28:28.667Z,96759.84
2022-08-22T12:30:55.501Z,96753.03
2022-08-22T12:33:41.190Z,96747.16
2022-08-22T12:36:41.693Z,96744.88
2022-08-22T12:39:44.680Z,96749.78
2022-08-22T12:42:21.167Z,96752.09
2022-08-22T12:44:57.830Z,96751.44
2022-08-22T12:47:53.356Z,96750.84
2022-08-22T12:50:38.852Z,96743.88
2022-08-22T12:53:31.193Z,96751.75
2022-08-22T12:56:32.865Z,96753.38
2022-08-22T12:59:23.827Z,96736.84
2022-08-22T13:01:54.764Z,96736.97
2022-08-22T13:04:32.696Z,96733.28
2022-08-22T13:07:05.544Z,96735.81
2022-08-22T13:09:38.980Z,96738.47
2022-08-22T13:12:29.165Z,96745.41
2022-08-22T13:15:02.450Z,96743.91
2022-08-22T13:17:32.853Z,96759.84
2022-08-22T13:20:18.775Z,96758.75
2022-08-22T13:22:46.768Z,96766.88
2022-08-22T13:25:25.897Z,96772.47
2022-08-22T13:28:09.922Z,96768.53
2022-08-22T13:30:43.753Z,96771.53
2022-08-22T13:33:22.839Z,96775.34
2022-08-22T13:35:58.380Z,96775.72
2022-08-22T13:38:30.248Z,96785.38
2022-08-22T13:40:59.109Z,96783.00
2022-08-22T13:43:32.059Z,96790.84
2022-08-22T13:46:13.424Z,96794.00
2022-08-22T13:49:03.998Z,96782.00
2022-08-22T13:52:20.622Z,96780.78
2022-08-22T13:55:03.628Z,96781.59
2022-08-22T13:57:44.239Z,96782.59
2022-08-22T14:00:25.412Z,96787.28
2022-08-22T14:03:05.609Z,96784.63
2022-08-22T14:05:54.507Z,96781.84
2022-08-22T14:08:37.254Z,96786.72
2022-08-22T14:11:18.022Z,96779.97
2022-08-22T14:13:53.755Z,96775.03
2022-08-22T14:16:25.235Z,96773.88
2022-08-22T14:18:57.885Z,96772.19
2022-08-22T14:21:27.482Z,96773.91
2022-08-22T14:24:00.256Z,96769.25
2022-08-22T14:26:33.216Z,96773.13
2022-08-22T14:29:12.636Z,96779.66
2022-08-22T14:31:40.150Z,96788.53
2022-08-22T14:34:12.225Z,96792.06
2022-08-22T14:36:58.963Z,96801.13
2022-08-22T14:39:36.277Z,96798.34
2022-08-22T14:42:11.172Z,96799.72
2022-08-22T14:44:47.836Z,96805.78
2022-08-22T14:47:55.492Z,96811.91
2022-08-22T14:50:45.813Z,96809.28
2022-08-22T14:53:36.011Z,96810.47
2022-08-22T14:56:22.496Z,96820.16
2022-08-22T14:59:05.004Z,96818.06
2022-08-22T15:01:53.136Z,96828.53
2022-08-22T15:04:37.207Z,96828.09
2022-08-22T15:07:08.509Z,96826.53
2022-08-22T15:09:53.074Z,96821.16
2022-08-22T15:12:33.154Z,96821.84
2022-08-22T15:15:03.875Z,96829.50
2022-08-22T15:17:38.390Z,96823.88
2022-08-22T15:20:28.701Z,96823.31
2022-08-22T15:23:49.858Z,96834.88
2022-08-22T15:26:38.408Z,96825.94
2022-08-22T15:29:26.560Z,96828.19
2022-08-22T15:31:58.999Z,96827.69
2022-08-22T15:34:33.368Z,96830.50
2022-08-22T15:37:18.181Z,96837.84
2022-08-22T15:40:11.872Z,96832.19
2022-08-22T15:42:51.144Z,96837.50
2022-08-22T15:45:37.920Z,96830.69
2022-08-22T15:48:09.413Z,96838.38
2022-08-22T15:50:56.476Z,96838.50
2022-08-22T15:53:33.548Z,96840.84
2022-08-22T15:56:05.477Z,96842.13
2022-08-22T15:58:37.383Z,96840.22
2022-08-22T16:01:19.738Z,96854.38
2022-08-22T16:04:00.507Z,96842.47
2022-08-22T16:06:43.550Z,96851.56
2022-08-22T16:09:32.257Z,96855.59
2022-08-22T16:12:04.325Z,96847.34
2022-08-22T16:14:33.877Z,96853.63
2022-08-22T16:17:08.153Z,96851.38
2022-08-22T16:19:36.221Z,96851.41
2022-08-22T16:22:06.911Z,96848.13
2022-08-22T16:24:55.153Z,96858.13
2022-08-22T16:27:24.555Z,96854.09
2022-08-22T16:30:01.884Z,96855.31
2022-08-22T16:32:28.692Z,96856.56
2022-08-22T16:34:55.474Z,96858.00
2022-08-22T16:37:50.798Z,96867.50
2022-08-22T16:40:22.534Z,96868.50
2022-08-22T16:43:17.197Z,96872.78
2022-08-22T16:45:45.733Z,96872.59
2022-08-22T16:48:25.722Z,96873.31
2022-08-22T16:51:11.036Z,96883.47
2022-08-22T16:54:25.557Z,96880.31
2022-08-22T16:57:24.671Z,96877.66
2022-08-22T17:00:12.200Z,96888.16
2022-08-22T17:03:03.332Z,96882.09
2022-08-22T17:05:54.834Z,96889.38
2022-08-22T17:08:36.542Z,96887.38
2022-08-22T17:11:38.806Z,96898.66
2022-08-22T17:14:25.378Z,96882.16
2022-08-22T17:16:54.903Z,96887.28
2022-08-22T17:20:06.352Z,96886.09
2022-08-22T17:22:33.093Z,96886.13
2022-08-22T17:24:59.826Z,96886.97
2022-08-22T17:27:37.948Z,96886.53
2022-08-22T17:30:16.306Z,96884.06
2022-08-22T17:33:20.765Z,96886.66
2022-08-22T17:36:26.596Z,96891.38
2022-08-22T17:39:33.203Z,96885.28
2022-08-22T17:42:26.976Z,96882.28
2022-08-22T17:45:16.393Z,96884.47
2022-08-22T17:47:55.605Z,96888.50
2022-08-22T17:50:56.225Z,96892.41
2022-08-22T17:53:47.709Z,96891.72
2022-08-22T17:57:00.473Z,96894.41
2022-08-22T17:59:57.890Z,96889.72
2022-08-22T18:02:41.079Z,96893.72
2022-08-22T18:05:44.981Z,96903.28
2022-08-22T18:12:01.787Z,96905.78
2022-08-22T18:14:44.936Z,96900.06
2022-08-22T18:17:31.850Z,96904.88
2022-08-22T18:20:09.977Z,96906.97
2022-08-22T18:23:03.571Z,96918.34
2022-08-22T18:25:42.269Z,96923.22
2022-08-22T18:28:24.110Z,96926.41
2022-08-22T18:31:02.713Z,96928.91
2022-08-22T18:33:36.051Z,96938.19
2022-08-22T18:36:36.808Z,96948.09
2022-08-22T18:39:14.512Z,96943.03
2022-08-22T18:42:03.753Z,96948.69
2022-08-22T18:44:54.343Z,96946.81
2022-08-22T18:47:36.806Z,96941.88
2022-08-22T18:50:42.200Z,96943.06
2022-08-22T18:53:39.422Z,96939.09
2022-08-22T18:56:19.340Z,96941.31
2022-08-22T18:59:05.335Z,96943.47
2022-08-22T19:02:00.846Z,96943.06
2022-08-22T19:04:30.892Z,96937.78
2022-08-22T19:07:21.529Z,96943.06
2022-08-22T19:12:40.960Z,96942.22
2022-08-22T19:15:31.358Z,96932.59
2022-08-22T19:18:16.679Z,96933.59
2022-08-22T19:21:02.279Z,96934.13
2022-08-22T19:23:40.498Z,96934.81
2022-08-22T19:26:28.717Z,96938.63
2022-08-22T19:28:57.971Z,96945.44
2022-08-22T19:31:44.512Z,96949.38
2022-08-22T19:34:22.165Z,96951.06
2022-08-22T19:37:32.861Z,96954.22
2022-08-22T19:40:11.432Z,96960.81
2022-08-22T19:42:41.619Z,96961.81
2022-08-22T19:45:29.403Z,96968.69
2022-08-22T19:48:01.275Z,96983.59
2022-08-22T19:50:38.627Z,96981.59
2022-08-22T19:53:35.268Z,96980.38
2022-08-22T19:56:27.754Z,96985.81
2022-08-22T19:59:19.509Z,96989.03
2022-08-22T20:02:00.958Z,96989.81
2022-08-22T20:04:52.889Z,96997.03
2022-08-22T20:07:42.280Z,97001.78
2022-08-22T20:10:30.415Z,97006.75
2022-08-22T20:13:01.265Z,97008.16
2022-08-22T20:15:31.407Z,97014.41
2022-08-22T20:21:00.103Z,97016.78
2022-08-22T20:23:32.231Z,97015.28
2022-08-22T20:25:59.726Z,97018.28
2022-08-22T20:28:44.387Z,97014.19
2022-08-22T20:31:19.596Z,97021.28
2022-08-22T20:33:47.106Z,97017.59
2022-08-22T20:36:27.848Z,97014.84
2022-08-22T20:39:04.937Z,97016.50
2022-08-22T20:41:45.672Z,97010.66
2022-08-22T20:44:29.085Z,97021.63
2022-08-22T20:47:04.598Z,97012.31
2022-08-22T20:49:43.557Z,97025.41
2022-08-22T20:52:22.498Z,97028.97
2022-08-22T20:55:02.868Z,97020.31
2022-08-22T20:57:30.795Z,97010.88
2022-08-22T21:00:06.556Z,97009.47
2022-08-22T21:02:42.074Z,97006.88
2022-08-22T21:05:21.472Z,97001.91
2022-08-22T21:08:10.570Z,97011.25
2022-08-22T21:10:57.532Z,97012.16
2022-08-22T21:13:33.954Z,97018.06
2022-08-22T21:16:16.832Z,97017.78
2022-08-22T21:18:48.785Z,97018.88
2022-08-22T21:21:20.147Z,97024.06
2022-08-22T21:23:50.291Z,97021.38
2022-08-22T21:26:30.841Z,97022.09
2022-08-22T21:29:06.333Z,97011.91
2022-08-22T21:31:48.577Z,97009.22
2022-08-22T21:34:21.231Z,96999.66
2022-08-22T21:36:51.986Z,96997.97
2022-08-22T21:39:26.779Z,97000.16
2022-08-22T21:42:12.067Z,97000.13
2022-08-22T21:44:41.867Z,97003.63
2022-08-22T21:47:35.610Z,97007.47
2022-08-22T21:50:20.503Z,96997.50
2022-08-22T21:52:56.564Z,97002.50
2022-08-22T21:55:26.895Z,96999.81
2022-08-22T21:58:05.516Z,96992.63
2022-08-22T22:00:51.689Z,96991.78
2022-08-22T22:03:23.066Z,96983.19
2022-08-22T22:05:52.959Z,96981.66
2022-08-22T22:08:19.670Z,96986.19
2022-08-22T22:10:49.063Z,96988.97
2022-08-22T22:13:17.250Z,96991.78
2022-08-22T22:15:46.615Z,96997.44
2022-08-22T22:18:17.699Z,97001.97
2022-08-22T22:20:45.182Z,97001.56
2022-08-22T22:23:12.657Z,96998.06
2022-08-22T22:25:45.021Z,96998.59
2022-08-22T22:28:16.517Z,97004.38
2022-08-22T22:30:45.119Z,97007.59
2022-08-22T22:33:12.220Z,96996.47
2022-08-22T22:35:40.779Z,96996.19
2022-08-22T22:38:08.500Z,96997.44
2022-08-22T22:40:35.762Z,97002.66
2022-08-22T22:43:03.367Z,97003.63
2022-08-22T22:45:30.201Z,97009.16
2022-08-22T22:47:57.241Z,97016.81
2022-08-22T22:50:24.194Z,97018.47
2022-08-22T22:52:50.869Z,97014.38
2022-08-22T22:55:24.535Z,97015.38
2022-08-22T22:57:58.680Z,97019.91
2022-08-22T23:00:27.225Z,97021.44
2022-08-22T23:02:57.507Z,97030.06
2022-08-22T23:05:24.222Z,97031.19
2022-08-22T23:07:50.928Z,97024.69
2022-08-22T23:10:21.777Z,97022.69
2022-08-22T23:12:48.869Z,97026.50
2022-08-22T23:15:15.754Z,97017.22
2022-08-22T23:17:43.216Z,97013.69
2022-08-22T23:20:10.387Z,97015.91
2022-08-22T23:22:37.596Z,97016.78
2022-08-22T23:25:05.456Z,97017.06
2022-08-22T23:27:32.554Z,97010.97
2022-08-22T23:29:59.443Z,97010.69
2022-08-22T23:32:26.100Z,97007.41
2022-08-22T23:34:53.551Z,97015.06
2022-08-22T23:37:22.187Z,97008.56
2022-08-22T23:39:49.665Z,97004.63
2022-08-22T23:42:18.179Z,97000.50
2022-08-22T23:44:45.932Z,96994.88
2022-08-22T23:47:14.752Z,96996.41
2022-08-22T23:49:45.013Z,97001.63
2022-08-22T23:52:13.076Z,97007.75
2022-08-22T23:54:40.001Z,97002.97
2022-08-22T23:57:11.953Z,96999.94
2022-08-22T23:59:44.575Z,97002.78
